Time;durP1;ratioP1;P1;durP2;ratioP2;P2;SDS_P1;SDS_P2;PMS_P1;PMS_P2;Temp;Humidity;BMP_temperature;BMP_pressure;BME280_temperature;BME280_humidity;BME280_pressure;Samples;Min_cycle;Max_cycle;Signal;HPM_P1;HPM_P2
2021/01/22 00:02:34;;;;;;;;;;;6.90;78.90;;;5.59;57.44;93918.00;10405620;28;1769;-84
2021/01/22 00:07:37;;;;;;;;;;;6.50;77.80;;;5.64;58.08;93918.72;10370687;28;1989;-85
2021/01/22 00:12:38;;;;;;;;;;;6.60;78.30;;;5.77;57.64;93981.22;10384919;28;1830;-83
2021/01/22 00:17:40;;;;;;;;;;;6.70;78.10;;;5.77;56.75;93999.06;10377394;28;1883;-84
2021/01/22 00:22:42;;;;;;;;;;;6.80;76.90;;;5.62;57.27;93992.88;10383262;28;2120;-82
2021/01/22 00:27:44;;;;;;;;;;;6.90;77.20;;;5.61;57.13;94004.63;10380773;28;2035;-85
2021/01/22 00:32:46;;;;;;;;;;;6.70;77.40;;;5.60;57.78;93999.56;10390619;28;1654;-84
2021/01/22 00:37:48;;;;;;;;;;;6.60;77.60;;;5.59;58.00;93993.41;10365494;28;1509;-85
2021/01/22 00:42:49;;;;;;;;;;;6.60;77.80;;;5.65;57.41;93999.50;10383583;28;2046;-86
2021/01/22 00:47:52;;;;;;;;;;;6.60;77.90;;;5.64;57.88;93988.03;10382027;28;1991;-84
2021/01/22 00:52:54;;;;;;;;;;;6.70;78.10;;;5.65;57.58;93986.16;10390987;28;2022;-86
2021/01/22 00:57:56;;;;;;;;;;;6.70;77.60;;;5.62;57.62;93968.09;10399173;28;1484;-84
2021/01/22 01:02:58;;;;;;;;;;;7.40;77.90;;;5.55;57.60;93965.78;10403731;28;1527;-85
2021/01/22 01:08:03;;;;;;;;;;;6.60;77.60;;;5.52;58.12;93944.22;10405336;28;1950;-86
2021/01/22 01:13:05;;;;;;;;;;;6.60;77.80;;;5.43;58.40;93936.88;10374901;28;2177;-84
2021/01/22 01:18:07;;;;;;;;;;;6.50;78.00;;;5.49;58.35;93950.13;10385571;28;1829;-86
2021/01/22 01:23:14;;;;;;;;;;;6.50;78.50;;;5.46;58.98;93948.03;10387149;28;1895;-84
2021/01/22 01:28:16;;;;;;;;;;;6.80;79.20;;;5.51;59.35;93947.97;10381400;28;1910;-83
2021/01/22 01:33:18;;;;;;;;;;;6.50;79.10;;;5.59;58.45;93934.00;10376289;28;1580;-84
2021/01/22 01:38:20;;;;;;;;;;;6.50;78.70;;;5.62;58.24;93933.44;10394650;28;1685;-84
2021/01/22 01:43:22;;;;;;;;;;;6.60;78.40;;;5.70;57.85;93927.47;10366350;28;2128;-85
2021/01/22 01:48:24;;;;;;;;;;;7.10;78.50;;;5.75;58.05;93931.94;10361316;28;2036;-85
2021/01/22 01:53:26;;;;;;;;;;;6.70;78.40;;;5.82;57.90;93921.69;10374797;28;1794;-84
2021/01/22 01:58:27;;;;;;;;;;;7.10;78.50;;;5.86;58.29;93912.84;10377894;28;1958;-84
2021/01/22 02:03:30;;;;;;;;;;;6.80;78.30;;;5.90;58.41;93892.50;10380408;28;1854;-85
2021/01/22 02:08:32;;;;;;;;;;;7.80;79.10;;;5.95;58.35;93897.78;10382484;28;1981;-85
2021/01/22 02:13:33;;;;;;;;;;;6.90;78.60;;;6.03;57.78;93895.53;10368626;28;1824;-85
2021/01/22 02:18:36;;;;;;;;;;;7.00;78.30;;;6.12;57.97;93893.81;10385786;28;1994;-86
2021/01/22 02:23:38;;;;;;;;;;;7.00;78.20;;;6.20;57.79;93903.81;10363870;28;2050;-83
2021/01/22 02:28:40;;;;;;;;;;;7.10;78.10;;;6.24;57.04;93902.16;10369536;28;2080;-85
2021/01/22 02:33:42;;;;;;;;;;;7.20;77.70;;;6.24;57.40;93934.19;10385427;28;2102;-83
2021/01/22 02:38:43;;;;;;;;;;;7.20;77.60;;;6.30;57.22;93935.69;10380916;28;2426;-84
2021/01/22 02:43:46;;;;;;;;;;;7.20;77.50;;;6.34;57.05;93920.66;10416838;28;2073;-86
2021/01/22 02:48:47;;;;;;;;;;;7.30;77.50;;;6.24;57.79;93939.50;10407531;28;1954;-83
2021/01/22 02:53:49;;;;;;;;;;;7.30;77.70;;;6.20;57.50;93925.16;10413079;28;1700;-86
2021/01/22 02:58:51;;;;;;;;;;;7.80;77.90;;;6.14;58.29;93945.78;10421404;28;1252;-83
2021/01/22 03:03:53;;;;;;;;;;;7.20;78.00;;;6.11;57.69;93956.25;10422905;28;1459;-85
2021/01/22 03:08:55;;;;;;;;;;;7.20;78.00;;;6.10;58.49;93962.66;10386489;28;1918;-85
2021/01/22 03:13:57;;;;;;;;;;;7.10;78.60;;;6.06;58.98;93991.00;10389097;28;1858;-85
2021/01/22 03:18:59;;;;;;;;;;;7.10;78.80;;;6.14;58.06;93979.66;10370895;28;1403;-83
2021/01/22 03:24:04;;;;;;;;;;;7.20;78.60;;;6.13;60.91;93988.75;10354510;28;2212;-85
2021/01/22 03:29:06;;;;;;;;;;;7.10;80.30;;;6.08;61.58;93999.50;10398328;28;2057;-83
2021/01/22 03:34:07;;;;;;;;;;;8.10;81.90;;;5.87;65.57;94013.09;10403868;28;1865;-85
2021/01/22 03:39:09;;;;;;;;;;;7.00;84.10;;;5.80;64.30;94017.19;10395548;28;2077;-85
2021/01/22 03:44:11;;;;;;;;;;;6.90;83.90;;;5.67;63.44;94010.69;10385907;28;1854;-86
2021/01/22 03:49:13;;;;;;;;;;;6.80;83.40;;;5.51;65.14;94006.59;10368893;28;2136;-85
2021/01/22 03:54:15;;;;;;;;;;;6.70;84.30;;;5.43;64.67;94008.81;10381770;28;2085;-85
2021/01/22 03:59:17;;;;;;;;;;;6.50;84.70;;;5.47;64.24;94000.25;10393093;28;2111;-86
2021/01/22 04:04:18;;;;;;;;;;;6.50;84.40;;;5.61;63.48;93995.81;10387121;28;1839;-85
2021/01/22 04:09:34;;;;;;;;;;;6.60;84.10;;;5.81;63.09;93984.91;10411316;28;1965;-85
2021/01/22 04:14:36;;;;;;;;;;;6.70;84.00;;;5.97;62.89;93977.50;10394672;28;2184;-84
2021/01/22 04:19:38;;;;;;;;;;;6.90;83.70;;;6.04;62.64;93967.25;10386785;28;1915;-85
2021/01/22 04:24:40;;;;;;;;;;;7.00;83.70;;;6.10;62.89;93960.78;10390567;28;2066;-85
2021/01/22 04:29:42;;;;;;;;;;;7.70;84.00;;;6.17;62.91;93950.56;10380214;28;2079;-85
2021/01/22 04:34:44;;;;;;;;;;;7.10;83.70;;;6.20;63.26;93951.84;10382780;28;1555;-84
2021/01/22 04:39:46;;;;;;;;;;;7.20;84.00;;;6.25;63.46;93957.09;10390941;28;1969;-85
2021/01/22 04:44:48;;;;;;;;;;;7.20;84.10;;;6.24;63.62;93936.84;10392758;28;1919;-84
2021/01/22 04:49:50;;;;;;;;;;;7.20;84.30;;;6.25;63.86;93941.09;10383460;28;2111;-85
2021/01/22 04:54:52;;;;;;;;;;;7.20;84.60;;;6.28;64.19;93932.50;10379536;28;2252;-84
2021/01/22 04:59:54;;;;;;;;;;;7.80;85.10;;;6.33;64.12;93927.09;10388020;28;1983;-84
2021/01/22 05:04:56;;;;;;;;;;;7.30;85.10;;;6.37;64.67;93930.75;10364871;28;2043;-83
2021/01/22 05:09:58;;;;;;;;;;;7.30;85.30;;;6.45;64.48;93911.41;10369874;28;2082;-84
2021/01/22 05:15:03;;;;;;;;;;;7.40;85.30;;;6.45;64.27;93903.41;10398288;28;1044;-83
2021/01/22 05:20:05;;;;;;;;;;;7.40;85.50;;;6.43;64.73;93891.44;10414034;28;1825;-84
2021/01/22 05:25:07;;;;;;;;;;;7.40;85.50;;;6.47;64.62;93881.75;10356735;28;1915;-84
2021/01/22 05:30:09;;;;;;;;;;;7.50;85.60;;;6.61;64.14;93885.22;10383416;28;2121;-84
2021/01/22 05:35:11;;;;;;;;;;;7.50;85.40;;;6.59;63.75;93881.28;10373135;28;1990;-84
2021/01/22 05:40:13;;;;;;;;;;;7.60;85.10;;;6.63;63.88;93877.72;10381461;28;2073;-84
2021/01/22 05:45:15;;;;;;;;;;;7.60;85.20;;;6.65;63.34;93867.53;10384175;28;2447;-85
2021/01/22 05:50:17;;;;;;;;;;;8.20;85.10;;;6.48;63.74;93860.09;10404897;28;2003;-84
2021/01/22 05:55:19;;;;;;;;;;;8.20;85.10;;;6.33;64.12;93856.91;10385318;28;1897;-86
2021/01/22 06:00:21;;;;;;;;;;;7.40;85.20;;;6.13;65.62;93869.50;10401236;28;2076;-86
2021/01/22 06:05:23;;;;;;;;;;;7.30;85.70;;;5.95;66.07;93867.66;10379887;28;2256;-83
2021/01/22 06:10:25;;;;;;;;;;;7.10;86.20;;;5.79;66.78;93867.09;10392706;28;1906;-82
2021/01/22 06:15:27;;;;;;;;;;;7.00;86.70;;;5.70;66.71;93858.13;10399654;28;1983;-83
2021/01/22 06:20:29;;;;;;;;;;;6.90;87.20;;;5.67;66.98;93846.19;10371470;28;2420;-85
2021/01/22 06:25:31;;;;;;;;;;;6.80;87.40;;;5.45;67.04;93837.19;10366882;28;1482;-84
2021/01/22 06:30:34;;;;;;;;;;;7.50;88.00;;;5.30;67.51;93840.88;10384469;28;1940;-84
2021/01/22 06:35:36;;;;;;;;;;;7.00;88.00;;;5.26;68.02;93850.50;10408657;28;1385;-83
2021/01/22 06:40:38;;;;;;;;;;;6.40;88.20;;;5.28;67.72;93843.81;10376985;28;1913;-84
2021/01/22 06:45:40;;;;;;;;;;;6.40;88.40;;;5.33;67.25;93843.72;10401193;28;2065;-83
2021/01/22 06:50:43;;;;;;;;;;;6.40;88.20;;;5.35;67.40;93843.47;10389749;28;2168;-84
2021/01/22 06:55:45;;;;;;;;;;;6.40;88.30;;;5.29;67.62;93850.72;10375359;28;2303;-84
2021/01/22 07:00:49;;;;;;;;;;;6.40;88.40;;;5.29;67.36;93856.06;10404483;28;1831;-83
2021/01/22 07:05:55;;;;;;;;;;;6.30;88.30;;;5.42;66.38;93860.69;10391835;28;2081;-84
2021/01/22 07:10:57;;;;;;;;;;;7.10;88.40;;;5.49;66.66;93864.84;10417465;28;2097;-84
2021/01/22 07:15:59;;;;;;;;;;;6.40;87.90;;;5.60;65.99;93872.44;10390855;28;1754;-85
2021/01/22 07:21:03;;;;;;;;;;;6.80;87.80;;;5.78;65.84;93883.34;10387455;28;1874;-85
2021/01/22 07:26:10;;;;;;;;;;;6.70;87.60;;;5.94;64.77;93882.09;10387553;28;1825;-85
2021/01/22 07:31:13;;;;;;;;;;;6.90;86.90;;;6.02;64.58;93880.63;10407607;28;2002;-82
2021/01/22 07:36:15;;;;;;;;;;;7.00;86.50;;;6.11;64.33;93884.22;10407293;28;1983;-83
2021/01/22 07:41:17;;;;;;;;;;;8.00;86.60;;;6.20;63.69;93893.13;10401992;28;1795;-84
2021/01/22 07:46:20;;;;;;;;;;;7.60;85.80;;;6.13;64.19;93895.41;10383925;28;2213;-85
2021/01/22 07:51:23;;;;;;;;;;;7.30;85.80;;;6.20;63.65;93891.25;10387138;28;1980;-86
2021/01/22 07:56:25;;;;;;;;;;;7.10;85.30;;;6.26;62.74;93886.63;10391787;28;1754;-86
2021/01/22 08:01:27;;;;;;;;;;;7.20;84.80;;;6.34;63.29;93891.31;10396737;28;1870;-84
2021/01/22 08:06:30;;;;;;;;;;;7.20;84.90;;;6.53;63.58;93893.13;10361575;28;1883;-85
2021/01/22 08:11:32;;;;;;;;;;;8.20;86.10;;;6.89;60.80;93890.63;10374606;28;1918;-86
2021/01/22 08:16:36;;;;;;;;;;;7.70;84.50;;;7.12;61.69;93876.25;10406231;28;1540;-88
2021/01/22 08:21:44;;;;;;;;;;;7.90;84.90;;;7.40;62.75;93890.41;10405711;23;3633;-86
2021/01/22 08:26:46;;;;;;;;;;;8.90;85.00;;;7.53;59.80;93886.91;10371469;28;1910;-86
2021/01/22 08:32:06;;;;;;;;;;;8.70;82.70;;;7.54;60.38;93885.81;10356520;28;1597;-85
2021/01/22 08:37:08;;;;;;;;;;;9.30;82.60;;;7.48;59.04;93894.25;10350505;28;1272;-85
2021/01/22 08:42:10;;;;;;;;;;;8.40;81.40;;;7.48;60.05;93886.22;10335446;28;1924;-83
2021/01/22 08:47:13;;;;;;;;;;;8.40;81.30;;;7.45;58.84;93886.84;10327602;28;1967;-83
2021/01/22 08:52:17;;;;;;;;;;;9.20;81.40;;;7.69;58.29;93875.88;10333594;28;1859;-84
2021/01/22 08:57:18;;;;;;;;;;;8.80;80.60;;;8.06;56.95;93864.84;10359845;28;1845;-83
2021/01/22 09:02:21;;;;;;;;;;;8.80;80.00;;;8.59;54.60;93856.09;10333877;28;1969;-85
2021/01/22 09:07:23;;;;;;;;;;;9.20;78.20;;;9.05;52.77;93867.47;10377132;28;1960;-85
2021/01/22 09:12:25;;;;;;;;;;;10.30;77.30;;;9.45;52.10;93860.16;10360731;28;1487;-86
2021/01/22 09:17:31;;;;;;;;;;;10.10;75.60;;;9.80;51.02;93860.19;10364433;28;1818;-84
2021/01/22 09:22:34;;;;;;;;;;;10.50;73.90;;;10.17;48.96;93864.16;10355920;28;1824;-84
2021/01/22 09:27:39;;;;;;;;;;;10.90;72.00;;;10.33;47.26;93862.59;10368105;28;1990;-85
2021/01/22 09:32:41;;;;;;;;;;;11.00;70.50;;;10.40;48.00;93852.16;10341548;28;1963;-85
2021/01/22 09:37:43;;;;;;;;;;;11.20;70.10;;;10.28;47.72;93855.47;10350202;28;1555;-87
2021/01/22 09:42:45;;;;;;;;;;;11.30;68.90;;;10.51;45.88;93858.78;10356655;28;1899;-85
2021/01/22 09:47:48;;;;;;;;;;;11.40;68.00;;;10.56;46.45;93857.81;10357279;28;1979;-85
2021/01/22 09:52:50;;;;;;;;;;;11.40;67.60;;;10.39;45.59;93842.53;10356337;28;2006;-85
2021/01/22 09:57:52;;;;;;;;;;;11.50;66.80;;;10.18;46.07;93833.50;10336980;28;1792;-84
2021/01/22 10:02:54;;;;;;;;;;;11.30;66.60;;;9.93;46.99;93833.22;10349888;28;1825;-87
2021/01/22 10:07:57;;;;;;;;;;;11.10;67.20;;;9.95;47.60;93824.84;10370131;28;1926;-85
2021/01/22 10:12:58;;;;;;;;;;;10.90;68.00;;;10.14;46.62;93814.56;10380062;28;1891;-84
2021/01/22 10:18:03;;;;;;;;;;;11.00;67.70;;;10.37;45.94;93806.34;10327150;28;1867;-84
2021/01/22 10:23:06;;;;;;;;;;;11.10;67.40;;;10.71;44.74;93790.13;10322771;28;2018;-82
2021/01/22 10:28:28;;;;;;;;;;;11.40;66.80;;;10.79;44.95;93775.84;10362401;28;1914;-85
2021/01/22 10:33:54;;;;;;;;;;;11.60;66.30;;;10.68;45.59;93768.47;10361026;28;1703;-85
2021/01/22 10:39:07;;;;;;;;;;;11.60;66.20;;;10.64;46.10;93765.66;10347279;28;1908;-83
2021/01/22 10:44:09;;;;;;;;;;;11.50;66.50;;;10.69;45.59;93764.69;10345558;28;2064;-85
2021/01/22 10:49:13;;;;;;;;;;;11.60;66.50;;;10.72;45.49;93762.13;10336928;28;1918;-87
2021/01/22 10:54:16;;;;;;;;;;;11.60;66.40;;;10.63;45.94;93756.03;10351068;28;1836;-84
2021/01/22 11:05:02;;;;;;;;;;;11.70;66.70;;;10.94;44.84;93741.47;10331715;28;1980;-83
2021/01/22 11:10:06;;;;;;;;;;;11.80;66.20;;;11.00;45.08;93729.41;10366910;28;1899;-84
2021/01/22 11:15:19;;;;;;;;;;;11.90;65.70;;;10.87;44.99;93715.09;10349496;28;1949;-85
2021/01/22 11:20:28;;;;;;;;;;;11.90;65.20;;;10.85;45.14;93689.66;10371332;28;1945;-86
2021/01/22 11:25:32;;;;;;;;;;;11.90;65.10;;;10.86;44.02;93681.28;10349413;28;2026;-86
2021/01/22 11:30:38;;;;;;;;;;;11.80;64.80;;;10.83;44.81;93682.72;10343731;28;2029;-84
2021/01/22 11:35:41;;;;;;;;;;;11.80;64.80;;;10.92;44.97;93684.56;10337063;28;1960;-84
2021/01/22 11:40:46;;;;;;;;;;;11.80;65.40;;;10.86;45.07;93683.19;10351332;28;2046;-85
2021/01/22 11:45:48;;;;;;;;;;;11.80;65.30;;;10.86;45.36;93680.50;10339117;28;1720;-86
2021/01/22 11:50:50;;;;;;;;;;;11.80;65.40;;;10.79;45.23;93667.56;10326944;28;1983;-85
2021/01/22 11:55:52;;;;;;;;;;;11.80;65.50;;;10.70;45.26;93656.88;10358932;28;1907;-86
2021/01/22 12:00:53;;;;;;;;;;;11.70;65.50;;;10.72;46.02;93659.25;10322323;28;2002;-86
2021/01/22 12:05:55;;;;;;;;;;;11.70;66.10;;;10.73;46.47;93658.91;10366723;28;1991;-81
2021/01/22 12:10:58;;;;;;;;;;;11.70;66.50;;;10.93;46.07;93649.28;10344765;28;2001;-85
2021/01/22 12:15:59;;;;;;;;;;;11.80;66.30;;;11.08;45.93;93637.19;10350200;28;2060;-86
2021/01/22 12:21:05;;;;;;;;;;;11.90;66.10;;;11.31;45.28;93616.88;10324935;28;1717;-83
2021/01/22 12:26:07;;;;;;;;;;;12.10;65.80;;;11.33;45.23;93609.28;10348354;28;1451;-86
2021/01/22 12:31:09;;;;;;;;;;;12.20;65.30;;;11.38;45.29;93603.66;10376333;28;1903;-84
2021/01/22 12:36:11;;;;;;;;;;;12.30;65.40;;;11.36;44.97;93586.31;10366175;28;1919;-85
2021/01/22 12:41:13;;;;;;;;;;;12.20;65.30;;;11.28;45.37;93569.13;10359104;28;1989;-85
2021/01/22 12:46:15;;;;;;;;;;;12.20;65.40;;;11.18;45.94;93552.63;10353942;28;1843;-83
2021/01/22 12:51:17;;;;;;;;;;;12.20;65.60;;;11.02;46.37;93542.50;10354252;28;1962;-84
2021/01/22 12:56:19;;;;;;;;;;;12.00;66.20;;;10.91;46.93;93524.41;10360479;28;1866;-85
2021/01/22 13:01:21;;;;;;;;;;;12.00;66.70;;;10.95;46.57;93519.97;10357649;28;1834;-86
2021/01/22 13:06:24;;;;;;;;;;;11.90;66.80;;;10.88;46.58;93500.88;10346223;28;1895;-86
2021/01/22 13:11:26;;;;;;;;;;;11.90;66.50;;;10.80;47.02;93510.59;10343913;28;2001;-85
2021/01/22 13:16:28;;;;;;;;;;;11.80;66.80;;;10.82;47.16;93511.84;10356754;28;2163;-83
2021/01/22 13:21:30;;;;;;;;;;;11.80;67.20;;;10.73;47.05;93500.38;10333615;28;1872;-85
2021/01/22 13:26:32;;;;;;;;;;;11.80;67.00;;;10.76;47.39;93499.72;10330472;28;1742;-86
2021/01/22 13:31:34;;;;;;;;;;;11.70;66.90;;;10.76;46.99;93486.28;10345210;28;1915;-82
2021/01/22 13:36:37;;;;;;;;;;;11.80;67.00;;;10.74;47.38;93477.75;10332177;28;1689;-86
2021/01/22 13:41:38;;;;;;;;;;;11.70;67.00;;;10.73;47.29;93476.19;10347146;28;1983;-84
2021/01/22 13:46:40;;;;;;;;;;;11.70;66.90;;;10.68;47.44;93468.31;10351441;28;1326;-85
2021/01/22 13:51:43;;;;;;;;;;;11.70;66.80;;;10.70;47.53;93460.72;10360113;28;1903;-83
2021/01/22 13:56:45;;;;;;;;;;;11.60;67.10;;;10.65;47.27;93466.31;10369004;28;1998;-85
2021/01/22 14:01:49;;;;;;;;;;;11.60;67.20;;;10.67;47.47;93457.91;10390582;28;1615;-86
2021/01/22 14:06:52;;;;;;;;;;;11.60;67.20;;;10.69;47.44;93456.47;10371803;28;1898;-84
2021/01/22 14:11:54;;;;;;;;;;;11.60;67.10;;;10.78;47.28;93449.13;10382088;28;1958;-86
2021/01/22 14:16:56;;;;;;;;;;;11.60;66.90;;;10.72;46.29;93434.31;10382650;28;1777;-84
2021/01/22 14:22:03;;;;;;;;;;;11.70;66.50;;;10.75;46.79;93414.03;10389124;28;1893;-86
2021/01/22 14:27:05;;;;;;;;;;;11.60;66.40;;;10.72;46.50;93412.81;10376166;28;1826;-85
2021/01/22 14:32:07;;;;;;;;;;;11.70;66.30;;;10.69;46.95;93396.59;10377718;28;1999;-87
2021/01/22 14:37:09;;;;;;;;;;;11.60;66.40;;;10.63;47.05;93396.00;10355949;28;2111;-85
2021/01/22 14:42:11;;;;;;;;;;;11.60;66.70;;;10.47;47.85;93400.41;10388935;28;2051;-86
2021/01/22 14:47:14;;;;;;;;;;;11.50;67.40;;;10.13;49.19;93396.91;10372592;28;1415;-87
2021/01/22 14:52:16;;;;;;;;;;;11.30;68.20;;;9.95;49.87;93398.91;10370466;28;1726;-85
2021/01/22 14:57:18;;;;;;;;;;;11.10;68.90;;;9.77;50.85;93394.00;10383231;28;1903;-85
2021/01/22 15:02:20;;;;;;;;;;;10.90;69.80;;;9.60;51.58;93405.59;10373147;28;1734;-84
2021/01/22 15:07:22;;;;;;;;;;;10.70;70.50;;;9.54;51.58;93406.91;10370028;28;2009;-85
2021/01/22 15:12:24;;;;;;;;;;;10.60;70.90;;;9.45;52.34;93398.91;10370150;28;1787;-84
2021/01/22 15:17:25;;;;;;;;;;;10.50;71.30;;;9.42;52.19;93404.94;10372049;28;1969;-84
2021/01/22 15:22:28;;;;;;;;;;;10.40;71.70;;;9.37;52.62;93391.72;10344199;28;1941;-85
2021/01/22 15:27:29;;;;;;;;;;;10.40;72.10;;;9.27;53.57;93390.16;10357269;28;1907;-85
2021/01/22 15:32:32;;;;;;;;;;;10.30;72.40;;;9.14;53.21;93388.50;10362210;28;2187;-87
2021/01/22 15:37:34;;;;;;;;;;;10.20;72.60;;;8.96;54.59;93390.47;10373315;28;1255;-85
2021/01/22 15:42:37;;;;;;;;;;;10.00;73.00;;;8.85;55.11;93382.00;10389846;28;1335;-88
2021/01/22 15:47:39;;;;;;;;;;;9.90;73.70;;;8.76;55.40;93380.44;10380576;28;1965;-86
2021/01/22 15:52:43;;;;;;;;;;;11.10;74.90;;;8.76;54.60;93373.19;10350573;28;1900;-85
2021/01/22 15:57:46;;;;;;;;;;;9.80;74.20;;;8.66;55.47;93382.38;10370066;28;1213;-87
2021/01/22 16:02:48;;;;;;;;;;;10.40;74.80;;;8.69;55.46;93380.94;10376236;28;1988;-87
2021/01/22 16:07:51;;;;;;;;;;;9.70;74.70;;;8.65;54.88;93380.81;10363500;28;1906;-85
2021/01/22 16:12:58;;;;;;;;;;;10.90;75.30;;;8.58;55.65;93382.38;10352747;28;1858;-82
2021/01/22 16:18:03;;;;;;;;;;;9.60;74.90;;;8.51;54.99;93384.75;10382685;28;1903;-83
2021/01/22 16:23:06;;;;;;;;;;;10.50;75.50;;;8.47;55.35;93384.63;10347322;28;1908;-84
2021/01/22 16:28:08;;;;;;;;;;;9.50;75.30;;;8.53;55.07;93390.59;10352246;28;1987;-85
2021/01/22 16:33:10;;;;;;;;;;;10.60;75.60;;;8.40;55.02;93378.97;10361969;28;1815;-86
2021/01/22 16:38:27;;;;;;;;;;;9.50;75.00;;;8.32;55.39;93369.81;10363921;28;2034;-85
2021/01/22 16:43:47;;;;;;;;;;;10.50;75.30;;;8.19;55.65;93354.72;10344425;28;1964;-88
2021/01/22 16:48:49;;;;;;;;;;;9.30;74.80;;;8.10;55.51;93356.63;10390983;28;2052;-88
2021/01/22 16:53:51;;;;;;;;;;;9.20;75.10;;;7.92;56.64;93349.72;10357335;28;2311;-88
2021/01/22 16:58:55;;;;;;;;;;;9.10;75.70;;;7.73;57.10;93347.34;10351041;28;2089;-88
2021/01/22 17:03:58;;;;;;;;;;;8.90;76.10;;;7.57;57.52;93330.97;10363883;28;1852;-90
2021/01/22 17:09:00;;;;;;;;;;;8.70;76.50;;;7.42;57.90;93329.56;10356439;28;2073;-88
2021/01/22 17:14:07;;;;;;;;;;;8.60;77.00;;;7.29;58.73;93333.16;10372853;28;2007;-86
2021/01/22 17:19:12;;;;;;;;;;;9.90;78.20;;;7.11;59.15;93321.63;10372354;28;1900;-88
2021/01/22 17:24:16;;;;;;;;;;;8.30;77.90;;;7.06;59.79;93316.44;10374371;28;2074;-89
2021/01/22 17:29:19;;;;;;;;;;;8.40;78.50;;;6.95;59.57;93297.25;10368036;28;2011;-88
2021/01/22 17:34:21;;;;;;;;;;;8.90;79.10;;;6.86;59.70;93293.78;10361663;28;1987;-89
2021/01/22 17:39:23;;;;;;;;;;;8.00;78.70;;;6.75;60.54;93290.63;10357299;28;1949;-89
2021/01/22 17:44:26;;;;;;;;;;;7.90;79.20;;;6.65;60.80;93285.56;10339860;28;1780;-88
2021/01/22 17:49:31;;;;;;;;;;;8.40;80.10;;;6.55;61.00;93299.16;10362596;28;1971;-88
2021/01/22 17:54:34;;;;;;;;;;;9.00;81.10;;;6.45;61.94;93288.78;10353275;28;1991;-89
2021/01/22 17:59:37;;;;;;;;;;;7.50;81.00;;;6.42;62.97;93286.72;10345430;28;1929;-89
2021/01/22 18:04:39;;;;;;;;;;;8.00;82.00;;;6.25;63.37;93292.78;10343788;28;1525;-88
2021/01/22 18:09:41;;;;;;;;;;;7.40;81.90;;;6.21;63.82;93300.59;10369980;28;1969;-89
2021/01/22 18:14:46;;;;;;;;;;;7.30;82.90;;;6.08;64.07;93290.00;10375236;28;1935;-90
2021/01/22 18:19:59;;;;;;;;;;;7.20;83.10;;;5.98;64.15;93277.75;10356759;28;1834;-89
2021/01/22 18:25:10;;;;;;;;;;;7.10;83.40;;;5.90;64.58;93260.53;10371240;28;1969;-87
2021/01/22 18:30:12;;;;;;;;;;;7.00;83.80;;;5.79;65.19;93253.91;10344308;28;1999;-90
2021/01/22 18:35:17;;;;;;;;;;;6.90;84.10;;;5.74;65.25;93253.25;10343636;28;2029;-89
2021/01/22 18:40:20;;;;;;;;;;;7.10;84.60;;;5.56;66.25;93249.69;10356732;28;2151;-90
2021/01/22 18:45:26;;;;;;;;;;;6.70;85.10;;;5.46;66.47;93258.69;10340554;28;1948;-90
2021/01/22 18:50:28;;;;;;;;;;;6.60;85.40;;;5.38;67.54;93256.75;10347540;28;2016;-88
2021/01/22 18:55:30;;;;;;;;;;;6.50;86.10;;;5.26;67.74;93245.84;10368078;28;2003;-88
2021/01/22 19:00:34;;;;;;;;;;;6.40;86.40;;;5.26;67.80;93253.84;10376785;28;2022;-89
2021/01/22 19:05:40;;;;;;;;;;;6.40;86.80;;;5.30;67.74;93234.28;10330095;28;1832;-89
2021/01/22 19:10:46;;;;;;;;;;;6.40;87.10;;;5.42;67.38;93229.22;10338163;28;1969;-87
2021/01/22 19:15:49;;;;;;;;;;;6.90;87.40;;;5.37;67.90;93228.53;10380229;28;1922;-87
2021/01/22 19:26:10;;;;;;;;;;;6.30;87.20;;;5.32;67.61;93205.47;10344135;28;1169;-89
2021/01/22 19:31:13;;;;;;;;;;;6.40;87.40;;;5.46;67.23;93196.63;10349405;28;1891;-87
2021/01/22 19:36:17;;;;;;;;;;;7.60;88.10;;;5.35;68.05;93188.13;10360747;28;1256;-88
2021/01/22 19:41:21;;;;;;;;;;;7.40;88.10;;;5.32;68.39;93200.16;10349252;28;1638;-87
2021/01/22 19:46:26;;;;;;;;;;;6.80;88.10;;;5.33;68.13;93177.75;10384495;28;1812;-88
2021/01/22 19:56:42;;;;;;;;;;;6.40;87.70;;;5.52;67.44;93174.88;10398974;28;1623;-88
2021/01/22 20:01:50;;;;;;;;;;;6.50;87.70;;;5.53;67.45;93170.34;10356936;28;1524;-88
2021/01/22 20:06:52;;;;;;;;;;;6.50;87.70;;;5.44;67.84;93162.31;10373694;28;1260;-89
2021/01/22 20:11:58;;;;;;;;;;;6.50;87.80;;;5.37;67.84;93161.94;10367601;28;1895;-88
2021/01/22 20:17:03;;;;;;;;;;;6.50;87.80;;;5.40;68.19;93171.97;10346452;28;1565;-89
2021/01/22 20:22:08;;;;;;;;;;;6.40;88.00;;;5.32;68.08;93156.75;10358899;28;1743;-87
2021/01/22 20:27:12;;;;;;;;;;;6.30;88.10;;;5.30;68.38;93156.28;10339541;28;1525;-87
2021/01/22 20:32:14;;;;;;;;;;;7.00;88.70;;;5.35;68.13;93140.16;10364725;28;1909;-85
2021/01/22 20:37:18;;;;;;;;;;;6.40;88.50;;;5.21;68.45;93132.22;10351509;28;1665;-83
2021/01/22 20:42:23;;;;;;;;;;;6.20;88.50;;;5.29;68.08;93115.53;10346833;28;1361;-85
2021/01/22 20:47:25;;;;;;;;;;;6.30;88.70;;;5.03;68.74;93112.72;10348408;28;1721;-83
2021/01/22 20:52:28;;;;;;;;;;;6.10;88.60;;;5.04;68.67;93114.28;10347321;28;1969;-85
2021/01/22 20:57:35;;;;;;;;;;;6.00;89.00;;;4.95;68.98;93100.09;10356848;28;1664;-87
2021/01/22 21:02:37;;;;;;;;;;;6.00;89.20;;;4.94;69.07;93098.53;10351036;28;1382;-85
2021/01/22 21:07:39;;;;;;;;;;;5.90;89.40;;;4.78;69.55;93100.78;10362705;28;1013;-84
2021/01/22 21:12:43;;;;;;;;;;;5.80;89.30;;;4.91;69.36;93111.69;10355328;28;1962;-85
2021/01/22 21:17:45;;;;;;;;;;;5.80;89.60;;;4.96;69.02;93112.31;10342911;28;1210;-86
2021/01/22 21:22:50;;;;;;;;;;;6.30;89.80;;;4.76;68.84;93092.31;10363991;28;1652;-86
2021/01/22 21:27:52;;;;;;;;;;;5.90;89.10;;;4.86;69.36;93085.97;10370254;28;1891;-88
2021/01/22 21:32:54;;;;;;;;;;;5.80;89.90;;;4.75;69.89;93074.78;10360276;28;1582;-86
2021/01/22 21:37:56;;;;;;;;;;;6.90;90.70;;;4.63;69.99;93065.75;10337531;28;1622;-84
2021/01/22 21:42:58;;;;;;;;;;;7.10;91.00;;;4.60;70.11;93051.19;10359111;28;1294;-83
2021/01/22 21:48:00;;;;;;;;;;;5.90;90.60;;;4.63;70.23;93055.13;10334279;28;1891;-84
2021/01/22 21:53:05;;;;;;;;;;;7.20;91.60;;;4.49;71.16;93045.31;10356823;28;1529;-84
2021/01/22 21:58:07;;;;;;;;;;;5.50;91.20;;;4.52;70.56;93049.28;10357539;28;1474;-84
2021/01/22 22:03:09;;;;;;;;;;;5.80;91.20;;;4.36;70.64;93061.34;10327614;28;1546;-84
2021/01/22 22:08:11;;;;;;;;;;;6.60;91.70;;;4.27;70.83;93061.28;10336661;28;1994;-83
2021/01/22 22:13:15;;;;;;;;;;;5.40;91.60;;;4.40;71.03;93041.03;10345148;28;1589;-86
2021/01/22 22:18:16;;;;;;;;;;;6.50;92.30;;;4.37;70.99;93045.06;10332326;28;1911;-84
2021/01/22 22:23:18;;;;;;;;;;;5.50;91.50;;;4.36;70.92;93042.72;10344091;28;1969;-84
2021/01/22 22:28:20;;;;;;;;;;;6.80;92.20;;;4.47;70.19;93052.03;10320554;28;2076;-86
2021/01/22 22:33:22;;;;;;;;;;;5.40;91.10;;;4.49;70.01;93045.31;10339502;28;1669;-85
2021/01/22 22:38:24;;;;;;;;;;;5.70;91.20;;;4.51;69.64;93047.66;10348315;28;2005;-86
2021/01/22 22:43:26;;;;;;;;;;;5.50;90.80;;;4.43;69.79;93072.34;10337561;28;1835;-86
2021/01/22 22:48:28;;;;;;;;;;;5.50;90.70;;;4.38;70.01;93078.56;10347568;28;2257;-88
2021/01/22 22:53:30;;;;;;;;;;;6.50;91.50;;;4.51;69.37;93045.78;10320977;28;1665;-84
2021/01/22 22:58:32;;;;;;;;;;;5.50;90.60;;;4.49;69.79;93089.75;10360654;28;2004;-84
2021/01/22 23:03:34;;;;;;;;;;;7.10;91.50;;;4.49;70.37;93100.41;10350953;28;2029;-84
2021/01/22 23:08:37;;;;;;;;;;;5.50;91.20;;;4.48;70.33;93122.78;10353752;28;1997;-83
2021/01/22 23:13:39;;;;;;;;;;;6.00;91.60;;;4.47;70.68;93122.00;10350257;28;1708;-83
2021/01/22 23:18:41;;;;;;;;;;;5.40;91.60;;;4.37;71.03;93126.72;10352019;28;2144;-84
2021/01/22 23:23:44;;;;;;;;;;;5.40;91.80;;;4.30;71.33;93119.94;10341296;28;2048;-82
2021/01/22 23:28:47;;;;;;;;;;;5.30;92.30;;;4.15;71.85;93117.63;10355219;28;1973;-84
2021/01/22 23:33:49;;;;;;;;;;;6.50;93.10;;;3.89;72.98;93128.00;10361023;28;1558;-83
2021/01/22 23:38:51;;;;;;;;;;;5.90;93.90;;;3.79;73.50;93118.34;10377897;28;1325;-83
2021/01/22 23:43:52;;;;;;;;;;;4.90;94.30;;;3.69;74.82;93113.22;10363580;28;1974;-85
2021/01/22 23:48:54;;;;;;;;;;;4.70;95.00;;;3.64;74.60;93104.56;10342494;28;1977;-84
2021/01/22 23:53:56;;;;;;;;;;;5.00;95.60;;;3.58;74.77;93095.13;10341151;28;1628;-86